Página principal
METAR-TAF:

METAR-TAF

Aeroportos :

Chita, Rússia

latitude: 52-05N, longitude: 113-29E, altura: 685 m

Observação actual do tempo

O boletim foi feito há 28 minutos, às 17:00 UTC
Vento calmo
Temperatura 18°C
Humidade 56%
Pressão 1008 hPa
Visibilidade 10 km ou mais

METAR: UIAA 281700Z 00000MPS 9999 NSC 18/09 Q1008 R29/CLRD70 NOSIG RMK QFE697/0930

Hora: 02:28 (17:28 UTC)

Previsão

O boletim foi feito há 3 horas e 28 minutos, às 14:00 UTC
Previsão válida de 28 às 15 UTC a 29 às 15 UTC
Vento 6 kt de noroeste
Visibilidade 10 km ou mais

TAF: UIAA 281400Z 2815/2915 31003MPS 9999 NSC

Observações e previsões do tempo de mais de 4000 aeroportos (mensagens METAR e TAF).

As estações disponíveis são os pontos amarelos e vermelhos sobre o mapa.

Mova o rato sobre o mapa para ver o nome da estação.

Depois clique no ponto para visualizar as observações e previsões meteorológicas.

Para alterar o mapa : clique nos botões verdes com uma cruz preta para aumentar o zoom; no botão verde com uma pitada de zoom; ou nas setas verdes para mapas adjacentes.


METAR-TAF: